sensor_id;sensor_type;location;lat;lon;timestamp;pressure;altitude;pressure_sealevel;temperature;humidity
33422;BME280;19763;55.798;37.782;2023-05-09T00:00:07;148398.34;;;4.32;72.23
33422;BME280;19763;55.798;37.782;2023-05-09T00:02:36;148397.09;;;4.32;71.84
33422;BME280;19763;55.798;37.782;2023-05-09T00:05:03;148390.72;;;4.29;72.19
33422;BME280;19763;55.798;37.782;2023-05-09T00:07:30;148370.28;;;4.21;72.22
33422;BME280;19763;55.798;37.782;2023-05-09T00:09:56;148344.78;;;4.11;72.92
33422;BME280;19763;55.798;37.782;2023-05-09T00:12:22;148335.81;;;4.07;72.92
33422;BME280;19763;55.798;37.782;2023-05-09T00:14:48;148348.59;;;4.12;72.88
33422;BME280;19763;55.798;37.782;2023-05-09T00:17:18;148348.59;;;4.12;71.81
33422;BME280;19763;55.798;37.782;2023-05-09T00:19:44;148349.84;;;4.13;71.92
33422;BME280;19763;55.798;37.782;2023-05-09T00:22:10;148334.56;;;4.07;72.51
33422;BME280;19763;55.798;37.782;2023-05-09T00:24:37;148335.81;;;4.07;72.68
33422;BME280;19763;55.798;37.782;2023-05-09T00:27:03;148320.53;;;4.01;73.02
33422;BME280;19763;55.798;37.782;2023-05-09T00:29:29;148303.94;;;3.94;73.43
33422;BME280;19763;55.798;37.782;2023-05-09T00:31:55;148295.03;;;3.91;73.59
33422;BME280;19763;55.798;37.782;2023-05-09T00:34:20;148284.81;;;3.87;73.11
33422;BME280;19763;55.798;37.782;2023-05-09T00:36:46;148311.56;;;3.97;72.67
33422;BME280;19763;55.798;37.782;2023-05-09T00:39:12;148319.28;;;4.01;73.22
33422;BME280;19763;55.798;37.782;2023-05-09T00:41:37;148326.91;;;4.04;72.50
33422;BME280;19763;55.798;37.782;2023-05-09T00:44:03;148335.81;;;4.07;73.06
33422;BME280;19763;55.798;37.782;2023-05-09T00:46:29;148324.34;;;4.03;73.59
33422;BME280;19763;55.798;37.782;2023-05-09T00:48:54;148334.56;;;4.07;72.85
33422;BME280;19763;55.798;37.782;2023-05-09T00:51:21;148319.28;;;4.01;73.13
33422;BME280;19763;55.798;37.782;2023-05-09T00:53:47;148297.53;;;3.92;73.96
33422;BME280;19763;55.798;37.782;2023-05-09T00:56:13;148289.91;;;3.89;73.82
33422;BME280;19763;55.798;37.782;2023-05-09T00:58:40;148245.28;;;3.71;74.51
33422;BME280;19763;55.798;37.782;2023-05-09T01:01:05;148256.75;;;3.75;73.99
33422;BME280;19763;55.798;37.782;2023-05-09T01:03:33;148270.78;;;3.81;73.84
33422;BME280;19763;55.798;37.782;2023-05-09T01:06:12;148264.41;;;3.78;73.81
33422;BME280;19763;55.798;37.782;2023-05-09T01:11:33;148229.94;;;3.65;73.88
33422;BME280;19763;55.798;37.782;2023-05-09T01:22:15;148212.09;;;3.57;74.89
33422;BME280;19763;55.798;37.782;2023-05-09T01:25:09;148186.59;;;3.47;75.15
33422;BME280;19763;55.798;37.782;2023-05-09T01:27:50;148212.09;;;3.57;75.13
33422;BME280;19763;55.798;37.782;2023-05-09T01:30:18;148218.50;;;3.60;74.11
33422;BME280;19763;55.798;37.782;2023-05-09T01:32:47;148193.00;;;3.50;74.75
33422;BME280;19763;55.798;37.782;2023-05-09T01:35:15;148217.22;;;3.59;74.43
33422;BME280;19763;55.798;37.782;2023-05-09T01:37:42;148233.78;;;3.66;74.74
33422;BME280;19763;55.798;37.782;2023-05-09T01:40:13;148224.88;;;3.62;74.31
33422;BME280;19763;55.798;37.782;2023-05-09T01:42:49;148190.44;;;3.49;74.48
33422;BME280;19763;55.798;37.782;2023-05-09T01:45:17;148196.81;;;3.51;75.02
33422;BME280;19763;55.798;37.782;2023-05-09T01:47:46;148175.16;;;3.42;75.82
33422;BME280;19763;55.798;37.782;2023-05-09T01:50:14;148153.47;;;3.34;75.11
33422;BME280;19763;55.798;37.782;2023-05-09T01:52:41;148173.84;;;3.42;75.13
33422;BME280;19763;55.798;37.782;2023-05-09T01:55:08;148193.00;;;3.50;75.19
33422;BME280;19763;55.798;37.782;2023-05-09T01:57:36;148196.81;;;3.51;75.39
33422;BME280;19763;55.798;37.782;2023-05-09T02:00:03;148196.81;;;3.51;74.68
33422;BME280;19763;55.798;37.782;2023-05-09T02:02:32;148196.81;;;3.51;75.11
33422;BME280;19763;55.798;37.782;2023-05-09T02:04:58;148181.53;;;3.45;75.52
33422;BME280;19763;55.798;37.782;2023-05-09T02:07:25;148178.97;;;3.44;75.48
33422;BME280;19763;55.798;37.782;2023-05-09T02:09:54;148167.50;;;3.39;76.08
33422;BME280;19763;55.798;37.782;2023-05-09T02:12:22;148180.22;;;3.44;75.31
33422;BME280;19763;55.798;37.782;2023-05-09T02:14:49;148204.47;;;3.54;75.67
33422;BME280;19763;55.798;37.782;2023-05-09T02:17:14;148224.88;;;3.62;75.01
33422;BME280;19763;55.798;37.782;2023-05-09T02:19:42;148252.94;;;3.74;75.15
33422;BME280;19763;55.798;37.782;2023-05-09T02:22:28;148242.72;;;3.70;75.19
33422;BME280;19763;55.798;37.782;2023-05-09T02:24:54;148278.44;;;3.84;74.53
33422;BME280;19763;55.798;37.782;2023-05-09T02:27:20;148420.03;;;4.41;73.09
33422;BME280;19763;55.798;37.782;2023-05-09T02:29:49;148520.91;;;4.82;71.47
33422;BME280;19763;55.798;37.782;2023-05-09T02:32:19;148559.19;;;4.97;71.02
33422;BME280;19763;55.798;37.782;2023-05-09T02:34:47;148561.72;;;4.98;70.47
33422;BME280;19763;55.798;37.782;2023-05-09T02:37:14;148554.06;;;4.95;70.57
33422;BME280;19763;55.798;37.782;2023-05-09T02:39:40;148628.13;;;5.25;70.17
33422;BME280;19763;55.798;37.782;2023-05-09T02:42:09;148661.31;;;5.39;70.18
33422;BME280;19763;55.798;37.782;2023-05-09T02:44:35;148610.25;;;5.18;70.48
33422;BME280;19763;55.798;37.782;2023-05-09T02:47:05;148592.38;;;5.11;71.02
33422;BME280;19763;55.798;37.782;2023-05-09T02:49:32;148566.84;;;5.00;71.59
33422;BME280;19763;55.798;37.782;2023-05-09T02:51:57;148594.94;;;5.12;71.27
33422;BME280;19763;55.798;37.782;2023-05-09T02:54:23;148621.75;;;5.23;71.72
33422;BME280;19763;55.798;37.782;2023-05-09T02:56:48;148635.78;;;5.28;71.26
33422;BME280;19763;55.798;37.782;2023-05-09T02:59:15;148612.81;;;5.19;71.04
33422;BME280;19763;55.798;37.782;2023-05-09T03:01:41;148649.84;;;5.34;71.17
33422;BME280;19763;55.798;37.782;2023-05-09T03:04:06;148658.78;;;5.38;70.38
33422;BME280;19763;55.798;37.782;2023-05-09T03:06:32;148700.94;;;5.55;70.54
33422;BME280;19763;55.798;37.782;2023-05-09T03:08:58;148734.16;;;5.68;70.27
33422;BME280;19763;55.798;37.782;2023-05-09T03:11:23;148741.81;;;5.71;69.61
33422;BME280;19763;55.798;37.782;2023-05-09T03:13:49;148769.91;;;5.82;70.11
33422;BME280;19763;55.798;37.782;2023-05-09T03:16:16;148783.97;;;5.88;69.29
33422;BME280;19763;55.798;37.782;2023-05-09T03:18:42;148780.13;;;5.86;68.99
33422;BME280;19763;55.798;37.782;2023-05-09T03:21:08;148826.19;;;6.05;68.76
33422;BME280;19763;55.798;37.782;2023-05-09T03:23:33;148837.66;;;6.10;68.16
33422;BME280;19763;55.798;37.782;2023-05-09T03:25:59;148867.09;;;6.21;68.51
33422;BME280;19763;55.798;37.782;2023-05-09T03:28:26;148867.09;;;6.21;67.78
33422;BME280;19763;55.798;37.782;2023-05-09T03:30:52;148909.28;;;6.38;67.67
33422;BME280;19763;55.798;37.782;2023-05-09T03:33:18;148936.09;;;6.49;66.58
33422;BME280;19763;55.798;37.782;2023-05-09T03:35:43;148973.19;;;6.64;66.19
33422;BME280;19763;55.798;37.782;2023-05-09T03:38:09;148994.91;;;6.73;65.83
33422;BME280;19763;55.798;37.782;2023-05-09T03:40:34;149031.97;;;6.88;64.57
33422;BME280;19763;55.798;37.782;2023-05-09T03:43:00;149072.91;;;7.04;64.16
33422;BME280;19763;55.798;37.782;2023-05-09T03:45:25;149093.41;;;7.13;63.88
33422;BME280;19763;55.798;37.782;2023-05-09T03:47:51;149113.81;;;7.21;64.03
33422;BME280;19763;55.798;37.782;2023-05-09T03:50:17;149136.88;;;7.30;64.24
33422;BME280;19763;55.798;37.782;2023-05-09T03:52:43;149154.78;;;7.37;64.59
33422;BME280;19763;55.798;37.782;2023-05-09T03:55:09;149167.59;;;7.42;62.30
33422;BME280;19763;55.798;37.782;2023-05-09T03:57:34;149204.66;;;7.57;62.18
33422;BME280;19763;55.798;37.782;2023-05-09T04:00:01;149253.28;;;7.77;61.16
33422;BME280;19763;55.798;37.782;2023-05-09T04:02:29;149275.03;;;7.86;55.82
33422;BME280;19763;55.798;37.782;2023-05-09T04:04:55;149313.44;;;8.01;55.94
33422;BME280;19763;55.798;37.782;2023-05-09T04:07:20;149333.94;;;8.09;55.32
33422;BME280;19763;55.798;37.782;2023-05-09T04:09:46;149364.63;;;8.22;56.88
33422;BME280;19763;55.798;37.782;2023-05-09T04:12:12;149385.13;;;8.30;53.50
33422;BME280;19763;55.798;37.782;2023-05-09T04:14:38;149399.19;;;8.36;53.56
33422;BME280;19763;55.798;37.782;2023-05-09T04:17:03;149421.00;;;8.44;52.06
33422;BME280;19763;55.798;37.782;2023-05-09T04:19:29;149433.84;;;8.50;50.32
33422;BME280;19763;55.798;37.782;2023-05-09T04:21:55;149433.84;;;8.50;49.64
33422;BME280;19763;55.798;37.782;2023-05-09T04:24:20;149482.44;;;8.69;50.42
33422;BME280;19763;55.798;37.782;2023-05-09T04:26:46;149513.19;;;8.81;49.83
33422;BME280;19763;55.798;37.782;2023-05-09T04:29:12;149518.34;;;8.84;48.96
33422;BME280;19763;55.798;37.782;2023-05-09T04:31:37;149528.56;;;8.88;48.16
33422;BME280;19763;55.798;37.782;2023-05-09T04:34:03;149611.84;;;9.21;48.54
33422;BME280;19763;55.798;37.782;2023-05-09T04:36:28;149696.41;;;9.55;46.80
33422;BME280;19763;55.798;37.782;2023-05-09T04:38:56;149774.59;;;9.87;45.81
33422;BME280;19763;55.798;37.782;2023-05-09T04:41:21;149800.22;;;9.97;45.55
33422;BME280;19763;55.798;37.782;2023-05-09T04:43:48;149836.09;;;10.11;44.47
33422;BME280;19763;55.798;37.782;2023-05-09T04:46:13;149870.72;;;10.25;44.27
33422;BME280;19763;55.798;37.782;2023-05-09T04:48:39;149877.16;;;10.28;43.40
33422;BME280;19763;55.798;37.782;2023-05-09T04:51:06;149960.53;;;10.61;40.76
33422;BME280;19763;55.798;37.782;2023-05-09T04:53:31;150164.53;;;11.43;38.12
33422;BME280;19763;55.798;37.782;2023-05-09T04:55:58;150385.38;;;12.32;36.48
33422;BME280;19763;55.798;37.782;2023-05-09T04:58:24;150547.19;;;12.97;35.61
33422;BME280;19763;55.798;37.782;2023-05-09T05:00:51;150652.63;;;13.39;34.50
33422;BME280;19763;55.798;37.782;2023-05-09T05:03:17;150797.88;;;13.97;31.69
33422;BME280;19763;55.798;37.782;2023-05-09T05:05:43;150801.72;;;13.98;32.95
33422;BME280;19763;55.798;37.782;2023-05-09T05:08:08;150934.19;;;14.52;33.19
33422;BME280;19763;55.798;37.782;2023-05-09T05:10:34;150845.44;;;14.16;33.07
33422;BME280;19763;55.798;37.782;2023-05-09T05:13:00;150878.91;;;14.29;33.12
33422;BME280;19763;55.798;37.782;2023-05-09T05:15:25;150917.44;;;14.45;33.14
33422;BME280;19763;55.798;37.782;2023-05-09T05:17:51;150855.72;;;14.20;32.08
33422;BME280;19763;55.798;37.782;2023-05-09T05:20:17;150842.84;;;14.15;32.77
33422;BME280;19763;55.798;37.782;2023-05-09T05:22:42;150850.59;;;14.18;32.76
33422;BME280;19763;55.798;37.782;2023-05-09T05:25:08;150864.75;;;14.24;32.51
33422;BME280;19763;55.798;37.782;2023-05-09T05:27:34;150900.75;;;14.38;34.06
33422;BME280;19763;55.798;37.782;2023-05-09T05:29:59;150785.00;;;13.92;31.11
33422;BME280;19763;55.798;37.782;2023-05-09T05:32:25;150828.69;;;14.09;31.46
33422;BME280;19763;55.798;37.782;2023-05-09T05:34:51;150803.00;;;13.99;33.32
33422;BME280;19763;55.798;37.782;2023-05-09T05:37:16;150797.88;;;13.97;31.99
33422;BME280;19763;55.798;37.782;2023-05-09T05:39:42;150809.44;;;14.02;30.72
33422;BME280;19763;55.798;37.782;2023-05-09T05:42:07;150891.72;;;14.35;31.87
33422;BME280;19763;55.798;37.782;2023-05-09T05:44:33;150929.06;;;14.49;32.02
33422;BME280;19763;55.798;37.782;2023-05-09T05:46:58;150968.97;;;14.65;32.74
33422;BME280;19763;55.798;37.782;2023-05-09T05:49:24;150929.06;;;14.49;30.70
33422;BME280;19763;55.798;37.782;2023-05-09T05:51:50;150851.88;;;14.19;31.11
33422;BME280;19763;55.798;37.782;2023-05-09T05:54:16;150891.72;;;14.35;31.79
33422;BME280;19763;55.798;37.782;2023-05-09T05:56:41;150921.28;;;14.46;31.82
33422;BME280;19763;55.798;37.782;2023-05-09T05:59:07;150819.72;;;14.06;30.34
33422;BME280;19763;55.798;37.782;2023-05-09T06:01:33;150827.44;;;14.09;31.42
33422;BME280;19763;55.798;37.782;2023-05-09T06:03:58;150797.88;;;13.97;32.77
33422;BME280;19763;55.798;37.782;2023-05-09T06:06:25;150836.47;;;14.12;31.99
33422;BME280;19763;55.798;37.782;2023-05-09T06:08:51;150827.44;;;14.09;31.64
33422;BME280;19763;55.798;37.782;2023-05-09T06:11:17;150828.69;;;14.09;31.26
33422;BME280;19763;55.798;37.782;2023-05-09T06:13:43;150781.16;;;13.90;31.03
33422;BME280;19763;55.798;37.782;2023-05-09T06:16:09;150818.47;;;14.05;30.81
33422;BME280;19763;55.798;37.782;2023-05-09T06:18:35;150732.28;;;13.71;29.46
33422;BME280;19763;55.798;37.782;2023-05-09T06:21:05;150727.16;;;13.69;29.06
33422;BME280;19763;55.798;37.782;2023-05-09T06:23:31;150750.28;;;13.78;30.37
33422;BME280;19763;55.798;37.782;2023-05-09T06:25:57;150778.56;;;13.89;31.08
33422;BME280;19763;55.798;37.782;2023-05-09T06:28:23;150770.88;;;13.86;31.30
33422;BME280;19763;55.798;37.782;2023-05-09T06:30:48;150718.16;;;13.65;29.79
33422;BME280;19763;55.798;37.782;2023-05-09T06:33:14;150742.56;;;13.75;30.43
33422;BME280;19763;55.798;37.782;2023-05-09T06:35:40;150796.56;;;13.96;31.48
33422;BME280;19763;55.798;37.782;2023-05-09T06:38:05;150830.03;;;14.10;31.20
33422;BME280;19763;55.798;37.782;2023-05-09T06:40:31;150809.44;;;14.02;30.36
33422;BME280;19763;55.798;37.782;2023-05-09T06:42:57;150853.16;;;14.19;31.63
33422;BME280;19763;55.798;37.782;2023-05-09T06:45:22;150833.88;;;14.11;29.22
33422;BME280;19763;55.798;37.782;2023-05-09T06:47:48;150846.75;;;14.17;29.99
33422;BME280;19763;55.798;37.782;2023-05-09T06:50:13;150819.72;;;14.06;31.70
33422;BME280;19763;55.798;37.782;2023-05-09T06:52:39;150867.28;;;14.25;30.68
33422;BME280;19763;55.798;37.782;2023-05-09T06:55:05;150832.59;;;14.11;29.62
33422;BME280;19763;55.798;37.782;2023-05-09T06:57:31;150814.56;;;14.04;27.77
33422;BME280;19763;55.798;37.782;2023-05-09T06:59:57;150831.28;;;14.10;29.10
33422;BME280;19763;55.798;37.782;2023-05-09T07:02:22;150754.13;;;13.79;29.66
33422;BME280;19763;55.798;37.782;2023-05-09T07:04:48;150718.16;;;13.65;31.13
33422;BME280;19763;55.798;37.782;2023-05-09T07:07:13;150664.16;;;13.43;29.96
33422;BME280;19763;55.798;37.782;2023-05-09T07:09:40;150697.63;;;13.57;31.12
33422;BME280;19763;55.798;37.782;2023-05-09T07:12:06;150752.88;;;13.79;28.80
33422;BME280;19763;55.798;37.782;2023-05-09T07:14:31;150828.69;;;14.09;30.77
33422;BME280;19763;55.798;37.782;2023-05-09T07:16:57;150824.84;;;14.08;29.64
33422;BME280;19763;55.798;37.782;2023-05-09T07:19:23;150871.16;;;14.26;29.01
33422;BME280;19763;55.798;37.782;2023-05-09T07:21:48;150900.75;;;14.38;29.34
33422;BME280;19763;55.798;37.782;2023-05-09T07:24:14;150902.03;;;14.39;28.90
33422;BME280;19763;55.798;37.782;2023-05-09T07:26:39;150963.78;;;14.63;28.73
33422;BME280;19763;55.798;37.782;2023-05-09T07:29:05;150913.59;;;14.43;28.35
33422;BME280;19763;55.798;37.782;2023-05-09T07:31:30;150902.03;;;14.39;28.87
33422;BME280;19763;55.798;37.782;2023-05-09T07:33:57;150903.28;;;14.39;29.49
33422;BME280;19763;55.798;37.782;2023-05-09T07:36:22;150813.28;;;14.03;29.61
33422;BME280;19763;55.798;37.782;2023-05-09T07:38:48;150801.72;;;13.98;28.62
33422;BME280;19763;55.798;37.782;2023-05-09T07:41:16;150819.72;;;14.06;28.59
33422;BME280;19763;55.798;37.782;2023-05-09T07:43:42;150817.16;;;14.05;30.20
33422;BME280;19763;55.798;37.782;2023-05-09T07:46:07;150772.19;;;13.87;27.52
33422;BME280;19763;55.798;37.782;2023-05-09T07:48:33;150696.31;;;13.56;27.88
33422;BME280;19763;55.798;37.782;2023-05-09T07:50:59;150710.44;;;13.62;29.24
33422;BME280;19763;55.798;37.782;2023-05-09T07:53:24;150727.16;;;13.69;29.69
33422;BME280;19763;55.798;37.782;2023-05-09T07:55:50;150716.88;;;13.64;29.16
33422;BME280;19763;55.798;37.782;2023-05-09T07:58:16;150696.31;;;13.56;28.19
33422;BME280;19763;55.798;37.782;2023-05-09T08:00:42;150691.19;;;13.54;29.15
33422;BME280;19763;55.798;37.782;2023-05-09T08:03:07;150706.59;;;13.60;29.06
33422;BME280;19763;55.798;37.782;2023-05-09T08:05:33;150714.28;;;13.63;29.05
33422;BME280;19763;55.798;37.782;2023-05-09T08:07:58;150718.16;;;13.65;29.61
33422;BME280;19763;55.798;37.782;2023-05-09T08:10:24;150693.75;;;13.55;28.50
33422;BME280;19763;55.798;37.782;2023-05-09T08:12:51;150707.84;;;13.61;29.61
33422;BME280;19763;55.798;37.782;2023-05-09T08:15:17;150689.88;;;13.54;29.89
33422;BME280;19763;55.798;37.782;2023-05-09T08:17:42;150679.63;;;13.50;29.36
33422;BME280;19763;55.798;37.782;2023-05-09T08:20:08;150709.16;;;13.61;30.22
33422;BME280;19763;55.798;37.782;2023-05-09T08:22:37;150711.75;;;13.62;30.63
33422;BME280;19763;55.798;37.782;2023-05-09T08:25:03;150709.16;;;13.61;30.96
33422;BME280;19763;55.798;37.782;2023-05-09T08:27:29;150714.28;;;13.63;31.12
33422;BME280;19763;55.798;37.782;2023-05-09T08:29:55;150682.16;;;13.51;29.65
33422;BME280;19763;55.798;37.782;2023-05-09T08:32:20;150682.16;;;13.51;29.14
33422;BME280;19763;55.798;37.782;2023-05-09T08:34:46;150686.00;;;13.52;29.79
33422;BME280;19763;55.798;37.782;2023-05-09T08:37:11;150728.44;;;13.69;30.72
33422;BME280;19763;55.798;37.782;2023-05-09T08:39:37;150783.72;;;13.91;29.21
33422;BME280;19763;55.798;37.782;2023-05-09T08:42:02;150794.03;;;13.95;28.15
33422;BME280;19763;55.798;37.782;2023-05-09T08:44:29;150799.16;;;13.97;28.57
33422;BME280;19763;55.798;37.782;2023-05-09T08:47:00;150647.50;;;13.37;27.15
33422;BME280;19763;55.798;37.782;2023-05-09T08:49:26;150641.00;;;13.34;26.77
33422;BME280;19763;55.798;37.782;2023-05-09T08:51:52;150644.91;;;13.36;27.21
33422;BME280;19763;55.798;37.782;2023-05-09T08:54:18;150697.63;;;13.57;27.14
33422;BME280;19763;55.798;37.782;2023-05-09T08:56:45;150702.72;;;13.59;29.14
33422;BME280;19763;55.798;37.782;2023-05-09T08:59:11;150671.88;;;13.46;27.15
33422;BME280;19763;55.798;37.782;2023-05-09T09:01:37;150660.31;;;13.42;26.32
33422;BME280;19763;55.798;37.782;2023-05-09T09:04:07;150657.72;;;13.41;25.45
33422;BME280;19763;55.798;37.782;2023-05-09T09:06:34;150813.28;;;14.03;26.09
33422;BME280;19763;55.798;37.782;2023-05-09T09:09:00;150842.84;;;14.15;25.75
33422;BME280;19763;55.798;37.782;2023-05-09T09:11:29;150934.19;;;14.52;26.25
33422;BME280;19763;55.798;37.782;2023-05-09T09:14:00;150999.84;;;14.78;25.40
33422;BME280;19763;55.798;37.782;2023-05-09T09:16:27;150994.69;;;14.76;25.14
33422;BME280;19763;55.798;37.782;2023-05-09T09:18:54;151046.19;;;14.96;26.03
33422;BME280;19763;55.798;37.782;2023-05-09T09:21:21;150959.94;;;14.62;24.67
33422;BME280;19763;55.798;37.782;2023-05-09T09:23:48;150983.13;;;14.71;26.01
33422;BME280;19763;55.798;37.782;2023-05-09T09:26:14;151030.72;;;14.90;27.45
33422;BME280;19763;55.798;37.782;2023-05-09T09:28:41;150887.88;;;14.33;25.78
33422;BME280;19763;55.798;37.782;2023-05-09T09:31:25;150912.31;;;14.43;26.79
33422;BME280;19763;55.798;37.782;2023-05-09T09:34:01;150936.75;;;14.53;27.94
33422;BME280;19763;55.798;37.782;2023-05-09T09:36:30;150908.47;;;14.41;26.91
33422;BME280;19763;55.798;37.782;2023-05-09T09:39:03;150880.16;;;14.30;26.30
33422;BME280;19763;55.798;37.782;2023-05-09T09:41:37;150893.06;;;14.35;27.34
33422;BME280;19763;55.798;37.782;2023-05-09T09:46:49;150927.75;;;14.49;27.11
33422;BME280;19763;55.798;37.782;2023-05-09T09:49:17;150941.88;;;14.55;27.86
33422;BME280;19763;55.798;37.782;2023-05-09T09:51:44;150929.06;;;14.49;27.55
33422;BME280;19763;55.798;37.782;2023-05-09T09:54:11;150912.31;;;14.43;27.69
33422;BME280;19763;55.798;37.782;2023-05-09T09:56:44;150912.31;;;14.43;27.97
33422;BME280;19763;55.798;37.782;2023-05-09T09:59:19;150907.16;;;14.41;28.58
33422;BME280;19763;55.798;37.782;2023-05-09T10:02:02;150855.72;;;14.20;28.39
33422;BME280;19763;55.798;37.782;2023-05-09T10:04:46;150881.44;;;14.30;27.56
33422;BME280;19763;55.798;37.782;2023-05-09T10:07:12;150907.16;;;14.41;28.64
33422;BME280;19763;55.798;37.782;2023-05-09T10:09:37;150868.59;;;14.25;26.89
33422;BME280;19763;55.798;37.782;2023-05-09T10:12:04;150920.03;;;14.46;28.18
33422;BME280;19763;55.798;37.782;2023-05-09T10:14:32;150941.88;;;14.55;28.09
33422;BME280;19763;55.798;37.782;2023-05-09T10:17:00;150989.56;;;14.74;28.10
33422;BME280;19763;55.798;37.782;2023-05-09T10:19:26;150995.97;;;14.76;27.25
33422;BME280;19763;55.798;37.782;2023-05-09T10:21:55;151043.59;;;14.95;26.30
33422;BME280;19763;55.798;37.782;2023-05-09T10:24:27;151073.16;;;15.07;26.98
33422;BME280;19763;55.798;37.782;2023-05-09T10:27:01;151015.28;;;14.84;25.73
33422;BME280;19763;55.798;37.782;2023-05-09T10:29:32;150952.19;;;14.59;26.40
33422;BME280;19763;55.798;37.782;2023-05-09T10:32:00;151034.56;;;14.92;26.25
33422;BME280;19763;55.798;37.782;2023-05-09T10:34:32;151051.31;;;14.98;26.14
33422;BME280;19763;55.798;37.782;2023-05-09T10:36:59;151064.19;;;15.04;25.53
33422;BME280;19763;55.798;37.782;2023-05-09T10:39:26;151151.66;;;15.39;28.01
33422;BME280;19763;55.798;37.782;2023-05-09T10:41:52;151172.28;;;15.47;27.43
33422;BME280;19763;55.798;37.782;2023-05-09T10:44:20;151111.78;;;15.23;26.10
33422;BME280;19763;55.798;37.782;2023-05-09T10:46:47;151077.03;;;15.09;27.43
33422;BME280;19763;55.798;37.782;2023-05-09T10:49:13;150810.72;;;14.02;26.65
33422;BME280;19763;55.798;37.782;2023-05-09T10:51:39;150908.47;;;14.41;26.01
33422;BME280;19763;55.798;37.782;2023-05-09T10:54:26;150940.63;;;14.54;26.70
33422;BME280;19763;55.798;37.782;2023-05-09T10:56:52;150943.22;;;14.55;26.99
33422;BME280;19763;55.798;37.782;2023-05-09T10:59:39;150878.91;;;14.29;26.48
33422;BME280;19763;55.798;37.782;2023-05-09T11:02:10;150871.16;;;14.26;27.12
33422;BME280;19763;55.798;37.782;2023-05-09T11:04:38;150805.59;;;14.00;26.43
33422;BME280;19763;55.798;37.782;2023-05-09T11:07:21;150842.84;;;14.15;26.54
33422;BME280;19763;55.798;37.782;2023-05-09T11:09:52;150824.84;;;14.08;26.49
33422;BME280;19763;55.798;37.782;2023-05-09T11:12:19;150808.16;;;14.01;25.66
33422;BME280;19763;55.798;37.782;2023-05-09T11:14:47;150837.72;;;14.13;25.88
33422;BME280;19763;55.798;37.782;2023-05-09T11:22:22;150871.16;;;14.26;25.86
33422;BME280;19763;55.798;37.782;2023-05-09T11:25:04;150881.44;;;14.30;25.47
33422;BME280;19763;55.798;37.782;2023-05-09T11:27:48;150899.44;;;14.38;26.75
33422;BME280;19763;55.798;37.782;2023-05-09T11:30:16;150872.47;;;14.27;25.45
33422;BME280;19763;55.798;37.782;2023-05-09T11:32:50;150873.72;;;14.27;25.62
33422;BME280;19763;55.798;37.782;2023-05-09T11:35:18;150912.31;;;14.43;26.08
33422;BME280;19763;55.798;37.782;2023-05-09T11:38:06;150922.63;;;14.47;26.31
33422;BME280;19763;55.798;37.782;2023-05-09T11:40:33;150859.59;;;14.22;25.76
33422;BME280;19763;55.798;37.782;2023-05-09T11:43:00;150858.31;;;14.21;25.60
33422;BME280;19763;55.798;37.782;2023-05-09T11:45:27;150844.16;;;14.15;25.53
33422;BME280;19763;55.798;37.782;2023-05-09T11:47:54;150889.16;;;14.33;26.52
33422;BME280;19763;55.798;37.782;2023-05-09T11:50:21;150929.06;;;14.49;25.66
33422;BME280;19763;55.798;37.782;2023-05-09T11:52:48;150941.88;;;14.55;25.95
33422;BME280;19763;55.798;37.782;2023-05-09T11:55:15;150997.28;;;14.77;26.33
33422;BME280;19763;55.798;37.782;2023-05-09T11:57:50;150914.91;;;14.44;25.58
33422;BME280;19763;55.798;37.782;2023-05-09T12:00:21;150907.16;;;14.41;25.84
33422;BME280;19763;55.798;37.782;2023-05-09T12:02:48;150837.72;;;14.13;25.58
33422;BME280;19763;55.798;37.782;2023-05-09T12:05:17;150938.03;;;14.53;25.98
33422;BME280;19763;55.798;37.782;2023-05-09T12:07:44;150929.06;;;14.49;25.28
33422;BME280;19763;55.798;37.782;2023-05-09T12:10:20;150976.69;;;14.69;25.02
33422;BME280;19763;55.798;37.782;2023-05-09T12:12:50;151041.00;;;14.94;26.32
33422;BME280;19763;55.798;37.782;2023-05-09T12:15:16;151053.88;;;14.99;26.85
33422;BME280;19763;55.798;37.782;2023-05-09T12:17:43;151096.34;;;15.16;27.08
33422;BME280;19763;55.798;37.782;2023-05-09T12:20:09;151131.06;;;15.30;26.99
33422;BME280;19763;55.798;37.782;2023-05-09T12:22:35;151154.25;;;15.40;25.31
33422;BME280;19763;55.798;37.782;2023-05-09T12:25:06;151141.38;;;15.34;25.95
33422;BME280;19763;55.798;37.782;2023-05-09T12:27:33;151039.72;;;14.94;24.85
33422;BME280;19763;55.798;37.782;2023-05-09T12:30:00;151122.09;;;15.27;25.46
33422;BME280;19763;55.798;37.782;2023-05-09T12:32:27;151169.69;;;15.46;25.39
33422;BME280;19763;55.798;37.782;2023-05-09T12:34:58;151201.88;;;15.59;25.34
33422;BME280;19763;55.798;37.782;2023-05-09T12:37:24;151223.75;;;15.67;25.07
33422;BME280;19763;55.798;37.782;2023-05-09T12:40:08;151248.22;;;15.77;25.68
33422;BME280;19763;55.798;37.782;2023-05-09T12:42:36;151194.16;;;15.56;25.42
33422;BME280;19763;55.798;37.782;2023-05-09T12:45:03;151176.13;;;15.48;25.68
33422;BME280;19763;55.798;37.782;2023-05-09T12:47:31;151150.41;;;15.38;25.22
33422;BME280;19763;55.798;37.782;2023-05-09T12:50:02;151123.34;;;15.27;24.88
33422;BME280;19763;55.798;37.782;2023-05-09T12:52:33;151044.84;;;14.96;24.54
33422;BME280;19763;55.798;37.782;2023-05-09T12:55:05;151010.09;;;14.82;25.69
33422;BME280;19763;55.798;37.782;2023-05-09T12:57:31;151021.72;;;14.87;24.98
33422;BME280;19763;55.798;37.782;2023-05-09T13:00:02;150948.34;;;14.57;25.34
33422;BME280;19763;55.798;37.782;2023-05-09T13:02:38;150886.63;;;14.32;26.19